VRMM Airport Information

Runway Information
Runway 18 Length 10499 ft width 148 ft
Elevation 6 ft Threshold 328 ft Heading 179
Runway 36 Length 10499 ft Width 148 ft
Elevation 5 ft Threshold 952 ft Heading 359
Airport Frequencies
Type APP Name APP Frequency 119.7 MHZ
Type GND Name GND Frequency 121.6 MHZ
Type TWR Name TWR Frequency 118.1 MHZ
Airport Navaids
Type NDB Name Male Frequency 252 KHZ
Type VOR-DME Name Male Frequency 114700 KHZ
Airport Weather Information & NOTAM
ADDS - METARS form results

(2205 UTC 18 August 2022)
Data provider http://aviationweather.gov/metar/data/
 
Forecast for: VRMM (MALE INTL/HULULE, MV)
Text: TAF VRMM 181700Z 1818/1924 25007KT 9999 FEW018
Forecast period: 1800 UTC 18 August 2022 to 0000 UTC 20 August 2022
Forecast type: FROM: standard forecast or significant change
Winds: from the WSW (250 degrees) at 8 MPH (7 knots; 3.6 m/s)
Visibility: 6 or more miles (10+ km)
Ceiling: at least 12,000 feet AGL
Clouds: few clouds at 1800 feet AGL
Weather: no significant weather forecast for this period
Text: TEMPO 1818/1824 FEW019CB
Forecast period: 1800 UTC 18 August 2022 to 0000 UTC 19 August 2022
Forecast type: TEMPORARY: The following changes expected for less than half the time period
Visibility: missing
Ceiling: at least 12,000 feet AGL
Clouds: few clouds at 1900 feet AGL
Weather: no significant weather forecast for this period